Time;durP1;ratioP1;P1;durP2;ratioP2;P2;SDS_P1;SDS_P2;PMS_P1;PMS_P2;Temp;Humidity;BMP_temperature;BMP_pressure;BME280_temperature;BME280_humidity;BME280_pressure;Samples;Min_cycle;Max_cycle;Signal;HPM_P1;HPM_P2
2022/01/04 00:00:35;;;;;;;6.03;3.13;;;7.00;1.00;;;;;;5055368;28;20292;-80
2022/01/04 00:03:02;;;;;;;4.47;2.92;;;7.00;1.00;;;;;;5056281;28;20287;-79
2022/01/04 00:05:28;;;;;;;5.57;2.63;;;7.10;1.00;;;;;;5050635;28;20262;-81
2022/01/04 00:07:56;;;;;;;5.90;3.53;;;7.10;1.00;;;;;;5054913;28;20495;-81
2022/01/04 00:10:25;;;;;;;8.52;2.90;;;7.10;1.00;;;;;;5054910;28;20232;-80
2022/01/04 00:15:41;;;;;;;5.75;3.10;;;7.10;1.00;;;;;;5062174;28;20353;-80
2022/01/04 00:18:08;;;;;;;4.45;2.88;;;7.10;1.00;;;;;;5075341;28;20237;-81
2022/01/04 00:20:35;;;;;;;5.93;3.50;;;7.10;1.00;;;;;;5062871;28;20595;-79
2022/01/04 00:23:01;;;;;;;6.13;2.45;;;7.20;1.00;;;;;;5049479;28;20673;-80
2022/01/04 00:25:28;;;;;;;4.15;2.92;;;7.20;1.00;;;;;;5050573;28;20297;-80
2022/01/04 00:27:55;;;;;;;6.72;2.72;;;7.20;1.00;;;;;;5049004;28;20356;-80
2022/01/04 00:30:24;;;;;;;4.82;2.53;;;7.20;1.00;;;;;;5062351;28;20684;-82
2022/01/04 00:32:52;;;;;;;4.32;2.40;;;7.10;1.00;;;;;;5074235;28;20327;-80
2022/01/04 00:35:19;;;;;;;5.22;2.35;;;7.10;1.00;;;;;;5061547;28;21005;-81
2022/01/04 00:37:46;;;;;;;5.75;2.92;;;7.10;1.00;;;;;;5055825;28;20221;-81
2022/01/04 00:40:13;;;;;;;4.65;2.78;;;7.10;1.00;;;;;;5057217;28;20696;-81
2022/01/04 00:42:40;;;;;;;5.15;2.47;;;7.00;1.00;;;;;;5055932;28;20227;-80
2022/01/04 00:45:07;;;;;;;6.28;2.60;;;7.00;1.00;;;;;;5053723;28;20233;-81
2022/01/04 00:47:44;;;;;;;6.13;2.45;;;7.00;1.00;;;;;;5053955;28;20223;-79
2022/01/04 00:50:12;;;;;;;5.50;2.50;;;7.00;1.00;;;;;;5053799;28;20228;-80
2022/01/04 00:52:39;;;;;;;3.03;1.92;;;7.00;1.00;;;;;;5050792;28;20758;-80
2022/01/04 00:55:06;;;;;;;4.10;2.10;;;7.00;1.00;;;;;;5049506;28;20345;-81
2022/01/04 00:57:33;;;;;;;4.75;2.45;;;7.00;1.00;;;;;;5053541;28;20225;-80
2022/01/04 01:00:00;;;;;;;4.55;2.05;;;7.00;1.00;;;;;;5056713;28;20739;-80
2022/01/04 01:02:26;;;;;;;4.45;1.98;;;7.00;1.00;;;;;;5052963;28;21781;-80
2022/01/04 01:04:54;;;;;;;4.57;2.60;;;7.10;1.00;;;;;;5059402;28;20399;-80
2022/01/04 01:07:22;;;;;;;4.00;2.03;;;7.10;1.00;;;;;;5029450;28;20268;-81
2022/01/04 01:10:02;;;;;;;3.85;2.28;;;7.10;1.00;;;;;;5050525;28;20231;-82
2022/01/04 01:12:28;;;;;;;4.40;2.20;;;7.10;1.00;;;;;;5055187;28;20336;-81
2022/01/04 01:14:55;;;;;;;4.20;2.60;;;7.10;1.00;;;;;;5058515;28;20221;-82
2022/01/04 01:17:31;;;;;;;3.38;2.40;;;7.00;1.00;;;;;;5057784;28;20283;-80
2022/01/04 01:20:03;;;;;;;3.28;2.25;;;7.00;1.00;;;;;;5053618;28;20229;-80
2022/01/04 01:22:34;;;;;;;4.53;3.15;;;7.10;1.00;;;;;;5053541;28;20230;-80
2022/01/04 01:25:08;;;;;;;7.28;2.42;;;7.00;1.00;;;;;;5053035;28;21038;-84
2022/01/04 01:27:38;;;;;;;6.07;2.28;;;7.10;1.00;;;;;;5054626;28;20332;-81
2022/01/04 01:30:12;;;;;;;3.85;2.17;;;7.10;1.00;;;;;;5043230;28;20304;-81
2022/01/04 01:32:44;;;;;;;3.92;1.80;;;7.00;1.00;;;;;;5057297;28;21467;-80
2022/01/04 01:35:12;;;;;;;3.80;2.10;;;7.00;1.00;;;;;;5056258;28;20228;-82
2022/01/04 01:37:40;;;;;;;3.58;1.85;;;7.00;1.00;;;;;;5048767;28;20221;-78
2022/01/04 01:40:07;;;;;;;3.55;1.83;;;7.00;1.00;;;;;;5054883;28;20256;-84
2022/01/04 01:42:35;;;;;;;4.78;2.28;;;7.00;1.00;;;;;;5068013;28;21027;-79
2022/01/04 01:45:16;;;;;;;;;;;;;;;;;;;;;
2022/01/04 01:47:44;;;;;;;4.70;2.13;;;7.00;1.00;;;;;;5092250;28;20339;-79
2022/01/04 01:50:15;;;;;;;3.78;1.55;;;7.00;1.00;;;;;;5093158;28;20233;-77
2022/01/04 01:52:46;;;;;;;2.90;1.60;;;7.00;1.00;;;;;;5091696;28;20225;-78
2022/01/04 01:55:15;;;;;;;3.47;1.90;;;7.00;1.00;;;;;;5088240;28;20202;-80
2022/01/04 01:57:42;;;;;;;4.25;2.17;;;7.00;1.00;;;;;;5060557;28;20214;-79
2022/01/04 02:00:12;;;;;;;3.78;1.60;;;7.00;1.00;;;;;;5052286;28;21035;-80
2022/01/04 02:02:39;;;;;;;5.43;1.83;;;7.00;1.00;;;;;;5057000;28;20221;-80
2022/01/04 02:05:06;;;;;;;2.97;1.90;;;7.00;1.00;;;;;;5055695;28;20320;-79
2022/01/04 02:07:37;;;;;;;3.10;1.90;;;7.00;1.00;;;;;;5052221;28;20222;-78
2022/01/04 02:10:07;;;;;;;4.80;2.13;;;7.00;1.00;;;;;;5052826;28;20221;-79
2022/01/04 02:12:36;;;;;;;5.03;1.90;;;7.00;1.00;;;;;;5055059;28;20278;-81
2022/01/04 02:15:05;;;;;;;4.30;1.83;;;7.00;1.00;;;;;;5056744;28;20229;-81
2022/01/04 02:17:32;;;;;;;4.18;1.90;;;7.00;1.00;;;;;;5057332;28;20331;-80
2022/01/04 02:20:01;;;;;;;5.35;1.95;;;7.00;1.00;;;;;;5065630;28;20303;-80
2022/01/04 02:22:28;;;;;;;8.00;2.78;;;7.00;1.00;;;;;;5058765;28;20213;-79
2022/01/04 02:24:55;;;;;;;3.65;2.28;;;7.00;1.00;;;;;;5060847;28;20810;-80
2022/01/04 02:27:22;;;;;;;5.15;2.38;;;7.00;1.00;;;;;;5057184;28;20303;-80
2022/01/04 02:29:50;;;;;;;4.35;2.13;;;7.00;1.00;;;;;;5071506;28;20357;-79
2022/01/04 02:32:17;;;;;;;4.50;1.90;;;7.00;1.00;;;;;;5082186;28;20218;-78
2022/01/04 02:34:49;;;;;;;2.80;1.40;;;7.00;1.00;;;;;;5075442;28;20273;-79
2022/01/04 02:37:20;;;;;;;4.65;2.20;;;7.00;1.00;;;;;;5069495;28;20229;-80
2022/01/04 02:39:46;;;;;;;3.22;1.38;;;7.00;1.00;;;;;;5059023;28;20222;-81
2022/01/04 02:42:13;;;;;;;3.25;1.95;;;7.00;1.00;;;;;;5061258;28;20448;-82
2022/01/04 02:44:40;;;;;;;2.40;1.67;;;7.00;1.00;;;;;;5056364;28;20283;-79
2022/01/04 02:47:07;;;;;;;4.07;1.88;;;7.10;1.00;;;;;;5061077;28;20256;-80
2022/01/04 02:49:34;;;;;;;5.43;2.50;;;7.00;1.00;;;;;;5060502;28;20226;-80
2022/01/04 02:52:00;;;;;;;4.35;2.60;;;7.00;1.00;;;;;;5067276;28;20316;-80
2022/01/04 02:54:29;;;;;;;4.15;3.20;;;7.00;1.00;;;;;;5053555;28;20329;-81
2022/01/04 02:56:55;;;;;;;4.22;3.15;;;7.00;1.00;;;;;;5062928;28;20275;-79
2022/01/04 02:59:22;;;;;;;5.55;3.30;;;7.00;1.00;;;;;;5075002;28;20222;-80
2022/01/04 03:01:49;;;;;;;4.40;2.60;;;7.00;1.00;;;;;;5055947;28;20619;-81
2022/01/04 03:04:15;;;;;;;3.30;2.30;;;7.00;1.00;;;;;;5046631;28;20256;-80
2022/01/04 03:06:42;;;;;;;5.30;2.88;;;7.10;1.00;;;;;;5045913;28;21322;-80
2022/01/04 03:09:09;;;;;;;3.45;2.05;;;7.10;1.00;;;;;;5057066;28;20317;-80
2022/01/04 03:11:38;;;;;;;3.42;2.28;;;7.10;1.00;;;;;;5052993;28;20224;-80
2022/01/04 03:14:05;;;;;;;4.15;2.88;;;7.10;1.00;;;;;;5065233;28;20218;-78
2022/01/04 03:16:31;;;;;;;3.60;2.30;;;7.10;1.00;;;;;;5077620;28;20248;-78
2022/01/04 03:19:06;;;;;;;4.53;2.25;;;7.20;1.00;;;;;;5062420;28;20253;-79
2022/01/04 03:21:34;;;;;;;3.05;2.20;;;7.10;1.00;;;;;;5044311;28;20218;-79
2022/01/04 03:24:02;;;;;;;4.75;2.25;;;7.20;1.00;;;;;;5047382;28;21093;-78
2022/01/04 03:26:28;;;;;;;2.88;2.05;;;7.20;1.00;;;;;;5054792;28;20232;-79
2022/01/04 03:28:57;;;;;;;5.05;2.00;;;7.20;1.00;;;;;;5048791;28;20231;-81
2022/01/04 03:31:24;;;;;;;3.47;1.85;;;7.20;1.00;;;;;;5054457;28;20725;-81
2022/01/04 03:33:50;;;;;;;5.78;1.88;;;7.20;1.00;;;;;;5056896;28;20288;-79
2022/01/04 03:36:20;;;;;;;5.53;2.95;;;7.20;1.00;;;;;;5051767;28;20258;-78
2022/01/04 03:38:49;;;;;;;4.45;2.05;;;7.10;1.00;;;;;;5056043;28;20294;-79
2022/01/04 03:41:16;;;;;;;2.63;1.77;;;7.20;1.00;;;;;;5053967;28;20218;-80
2022/01/04 03:43:43;;;;;;;4.20;1.70;;;7.20;1.00;;;;;;5051581;28;20304;-79
2022/01/04 03:46:11;;;;;;;3.20;1.85;;;7.20;1.00;;;;;;5048000;28;20244;-79
2022/01/04 03:48:38;;;;;;;6.13;1.80;;;7.10;1.00;;;;;;5056175;28;20477;-79
2022/01/04 03:51:06;;;;;;;3.38;2.00;;;7.20;1.00;;;;;;5064813;28;20217;-79
2022/01/04 03:53:33;;;;;;;4.00;1.70;;;7.20;1.00;;;;;;5062905;28;20399;-80
2022/01/04 03:56:00;;;;;;;5.07;2.00;;;7.20;1.00;;;;;;5052889;28;20233;-81
2022/01/04 03:58:26;;;;;;;3.80;1.80;;;7.20;1.00;;;;;;5055660;28;20214;-81
2022/01/04 04:00:53;;;;;;;4.15;2.05;;;7.20;1.00;;;;;;5056333;28;20237;-80
2022/01/04 04:03:21;;;;;;;2.78;1.80;;;7.20;1.00;;;;;;5059253;28;20225;-81
2022/01/04 04:05:49;;;;;;;3.25;2.05;;;7.20;1.00;;;;;;5062615;28;20221;-79
2022/01/04 04:08:15;;;;;;;3.75;2.10;;;7.10;1.00;;;;;;5077944;28;20301;-81
2022/01/04 04:10:42;;;;;;;3.65;2.13;;;7.20;1.00;;;;;;5056555;28;20488;-80
2022/01/04 04:13:09;;;;;;;4.20;2.30;;;7.20;1.00;;;;;;5074577;28;20578;-77
2022/01/04 04:15:38;;;;;;;6.70;2.05;;;7.10;1.00;;;;;;5078155;28;20233;-79
2022/01/04 04:18:05;;;;;;;5.32;2.00;;;7.10;1.00;;;;;;5076092;28;20280;-78
2022/01/04 04:20:33;;;;;;;5.18;2.90;;;7.10;1.00;;;;;;5073981;28;20239;-78
2022/01/04 04:23:00;;;;;;;3.72;2.28;;;7.10;1.00;;;;;;5077594;28;20224;-78
2022/01/04 04:25:26;;;;;;;6.00;2.65;;;7.00;1.00;;;;;;5079440;28;20375;-78
2022/01/04 04:27:53;;;;;;;6.45;3.90;;;7.00;1.00;;;;;;5069922;28;20730;-79
2022/01/04 04:30:21;;;;;;;8.35;4.97;;;7.00;1.00;;;;;;5073378;28;20356;-78
2022/01/04 04:32:48;;;;;;;6.68;4.30;;;6.90;1.00;;;;;;5076954;28;20232;-80
2022/01/04 04:35:15;;;;;;;9.13;3.80;;;6.90;1.00;;;;;;5079866;28;20344;-79
2022/01/04 04:37:43;;;;;;;5.22;2.90;;;6.80;1.00;;;;;;5076636;28;20315;-78
2022/01/04 04:40:11;;;;;;;3.55;2.40;;;6.80;1.00;;;;;;5076921;28;20731;-79
2022/01/04 04:42:38;;;;;;;3.97;3.05;;;6.80;1.00;;;;;;5080585;28;20284;-78
2022/01/04 04:45:07;;;;;;;4.00;2.50;;;6.70;1.00;;;;;;5084997;28;20226;-78
2022/01/04 04:47:34;;;;;;;6.05;3.08;;;6.60;1.00;;;;;;5095369;27;20230;-78
2022/01/04 04:50:02;;;;;;;4.30;2.60;;;6.70;1.00;;;;;;5094526;28;20205;-78
2022/01/04 04:52:28;;;;;;;6.00;3.25;;;6.70;1.00;;;;;;5095284;28;20224;-79
2022/01/04 04:54:56;;;;;;;4.47;2.83;;;6.70;1.00;;;;;;5087600;28;20221;-82
2022/01/04 04:57:23;;;;;;;4.97;4.00;;;6.70;1.00;;;;;;5066972;28;20535;-80
2022/01/04 04:59:49;;;;;;;4.57;3.00;;;6.80;1.00;;;;;;5064423;28;20297;-82
2022/01/04 05:02:16;;;;;;;6.20;3.50;;;6.80;1.00;;;;;;5063505;28;20217;-82
2022/01/04 05:04:43;;;;;;;3.75;3.15;;;6.80;1.00;;;;;;5062090;28;20297;-82
2022/01/04 05:07:10;;;;;;;8.15;3.70;;;6.80;1.00;;;;;;5068664;28;20313;-80
2022/01/04 05:09:36;;;;;;;5.00;3.22;;;6.80;1.00;;;;;;5056620;28;20225;-80
2022/01/04 05:12:06;;;;;;;3.70;3.25;;;6.80;1.00;;;;;;5058845;28;20301;-82
2022/01/04 05:14:33;;;;;;;4.35;3.50;;;6.70;1.00;;;;;;5053173;28;24298;-81
2022/01/04 05:17:00;;;;;;;4.40;3.75;;;6.80;1.00;;;;;;5051117;28;22238;-84
2022/01/04 05:19:27;;;;;;;5.00;3.28;;;6.70;1.00;;;;;;5063894;28;20217;-84
2022/01/04 05:21:53;;;;;;;6.45;4.10;;;6.70;1.00;;;;;;5054727;28;20307;-82
2022/01/04 05:24:20;;;;;;;6.28;4.35;;;6.70;1.00;;;;;;5062690;28;20220;-83
2022/01/04 05:26:47;;;;;;;3.85;3.45;;;6.70;1.00;;;;;;5063707;28;20283;-82
2022/01/04 05:29:15;;;;;;;4.57;3.65;;;6.80;1.00;;;;;;5063003;28;20232;-82
2022/01/04 05:31:41;;;;;;;8.25;3.97;;;6.80;1.00;;;;;;5065066;28;20233;-81
2022/01/04 05:34:08;;;;;;;5.65;5.13;;;6.80;1.00;;;;;;5058195;28;20339;-84
2022/01/04 05:36:35;;;;;;;6.15;4.35;;;6.80;1.00;;;;;;5055145;28;20256;-84
2022/01/04 05:39:03;;;;;;;9.43;5.32;;;6.70;1.00;;;;;;5060182;28;20229;-85
2022/01/04 05:41:30;;;;;;;7.40;6.43;;;6.80;1.00;;;;;;5061292;28;20224;-85
2022/01/04 05:43:56;;;;;;;7.00;6.03;;;6.80;1.00;;;;;;5054252;28;20229;-83
2022/01/04 05:46:24;;;;;;;6.00;5.40;;;6.90;1.00;;;;;;5060942;28;20313;-82
2022/01/04 05:48:51;;;;;;;6.43;5.78;;;6.90;1.00;;;;;;5064214;28;20272;-84
2022/01/04 05:51:18;;;;;;;7.68;6.82;;;6.80;1.00;;;;;;5061727;28;20389;-83
2022/01/04 05:53:45;;;;;;;8.05;7.15;;;6.80;1.00;;;;;;5058231;28;20233;-85
2022/01/04 05:56:12;;;;;;;8.70;7.18;;;6.80;1.00;;;;;;5064441;28;20287;-85
2022/01/04 05:58:39;;;;;;;8.15;7.35;;;6.80;1.00;;;;;;5078386;28;20226;-84
2022/01/04 06:01:06;;;;;;;8.73;7.82;;;6.80;1.00;;;;;;5078173;28;20221;-83
2022/01/04 06:03:34;;;;;;;8.82;7.93;;;6.80;1.00;;;;;;5065850;28;20280;-83
2022/01/04 06:06:01;;;;;;;9.57;7.70;;;6.80;1.00;;;;;;5063189;28;21668;-82
2022/01/04 06:08:32;;;;;;;10.77;7.68;;;6.90;1.00;;;;;;5056971;28;20238;-83
2022/01/04 06:10:59;;;;;;;8.48;7.55;;;6.90;1.00;;;;;;5063293;28;20202;-85
2022/01/04 06:16:19;;;;;;;9.27;7.20;;;6.90;1.00;;;;;;5049352;28;20228;-82
2022/01/04 06:18:48;;;;;;;10.40;6.75;;;6.90;1.00;;;;;;5061186;28;20222;-83
2022/01/04 06:21:14;;;;;;;8.05;6.60;;;6.90;1.00;;;;;;5067308;28;20224;-82
2022/01/04 06:23:41;;;;;;;7.25;6.20;;;6.90;1.00;;;;;;5057733;28;20244;-83
2022/01/04 06:26:08;;;;;;;8.88;6.85;;;6.90;1.00;;;;;;5070762;28;20731;-83
2022/01/04 06:28:35;;;;;;;8.32;6.85;;;7.00;1.00;;;;;;5064574;28;20357;-83
2022/01/04 06:31:02;;;;;;;8.38;6.72;;;7.00;1.00;;;;;;5081497;28;20237;-81
2022/01/04 06:33:29;;;;;;;7.88;6.38;;;6.90;1.00;;;;;;5082746;28;21140;-81
2022/01/04 06:35:57;;;;;;;10.60;8.30;;;6.90;1.00;;;;;;5078524;28;20237;-82
2022/01/04 06:38:24;;;;;;;9.23;6.72;;;6.90;1.00;;;;;;5080341;28;21099;-84
2022/01/04 06:40:51;;;;;;;8.13;5.93;;;7.10;1.00;;;;;;5063690;28;20407;-81
2022/01/04 06:43:17;;;;;;;6.45;5.43;;;7.10;1.00;;;;;;5061207;28;20261;-80
2022/01/04 06:45:45;;;;;;;10.23;6.75;;;7.10;1.00;;;;;;5062861;28;20278;-80
2022/01/04 06:48:12;;;;;;;9.48;7.68;;;7.10;1.00;;;;;;5069521;28;20744;-79
2022/01/04 06:50:39;;;;;;;7.35;6.65;;;7.10;1.00;;;;;;5065202;28;20234;-81
2022/01/04 06:53:07;;;;;;;7.78;6.97;;;7.10;1.00;;;;;;5066445;28;20217;-82
2022/01/04 06:55:34;;;;;;;7.82;5.82;;;7.10;1.00;;;;;;5061170;28;20229;-84
2022/01/04 06:58:00;;;;;;;8.40;6.40;;;7.10;1.00;;;;;;5052327;28;21086;-83
2022/01/04 07:00:30;;;;;;;7.22;6.30;;;7.20;1.00;;;;;;5071262;28;20253;-83
2022/01/04 07:02:57;;;;;;;6.57;5.85;;;7.20;1.00;;;;;;5067585;28;20216;-82
2022/01/04 07:05:24;;;;;;;12.27;8.57;;;7.10;1.00;;;;;;5057007;28;20232;-80
2022/01/04 07:07:51;;;;;;;7.55;6.50;;;7.10;1.00;;;;;;5057259;28;20732;-80
2022/01/04 07:10:19;;;;;;;8.80;6.82;;;7.10;1.00;;;;;;5059628;28;20323;-81
2022/01/04 07:12:46;;;;;;;7.05;5.65;;;7.10;1.00;;;;;;5063296;28;20228;-81
2022/01/04 07:15:13;;;;;;;7.68;5.70;;;7.20;1.00;;;;;;5054049;28;20802;-80
2022/01/04 07:17:41;;;;;;;7.05;5.50;;;7.20;1.00;;;;;;5049017;28;20319;-80
2022/01/04 07:20:09;;;;;;;7.28;6.28;;;7.30;1.00;;;;;;5060477;28;20240;-81
2022/01/04 07:22:36;;;;;;;7.47;6.03;;;7.30;1.00;;;;;;5056479;28;20233;-81
2022/01/04 07:25:04;;;;;;;10.02;7.03;;;7.30;1.00;;;;;;5055575;28;20786;-82
2022/01/04 07:27:32;;;;;;;9.98;7.15;;;7.40;1.00;;;;;;5056452;28;24932;-79
2022/01/04 07:29:59;;;;;;;7.78;6.00;;;7.50;1.00;;;;;;5058662;28;20226;-81
2022/01/04 07:32:26;;;;;;;6.20;5.30;;;7.40;1.00;;;;;;5056775;28;20236;-80
2022/01/04 07:34:52;;;;;;;8.77;6.03;;;7.40;1.00;;;;;;5061638;28;20248;-80
2022/01/04 07:37:19;;;;;;;7.45;5.15;;;7.50;1.00;;;;;;5057191;28;20303;-79
2022/01/04 07:39:46;;;;;;;9.00;6.30;;;7.50;1.00;;;;;;5055972;28;20224;-80
2022/01/04 07:42:13;;;;;;;6.22;5.63;;;7.40;1.00;;;;;;5064690;28;20483;-81
2022/01/04 07:44:41;;;;;;;8.30;7.07;;;7.40;1.00;;;;;;5069783;28;20275;-81
2022/01/04 07:47:11;;;;;;;11.57;7.45;;;7.50;1.00;;;;;;5084022;28;20277;-78
2022/01/04 07:49:37;;;;;;;7.82;6.63;;;7.50;1.00;;;;;;5093706;28;20211;-77
2022/01/04 07:52:05;;;;;;;10.55;6.95;;;7.50;1.00;;;;;;5092392;28;20219;-80
2022/01/04 07:54:31;;;;;;;10.30;7.88;;;7.50;1.00;;;;;;5069783;28;20219;-81
2022/01/04 07:56:58;;;;;;;9.90;7.60;;;7.60;1.00;;;;;;5065376;28;20223;-80
2022/01/04 07:59:29;;;;;;;10.25;8.10;;;7.60;1.00;;;;;;5059140;28;20222;-80
2022/01/04 08:01:57;;;;;;;11.50;8.70;;;7.70;1.00;;;;;;5062619;28;20280;-80
2022/01/04 08:04:24;;;;;;;11.38;7.97;;;7.70;1.00;;;;;;5054379;28;20310;-82
2022/01/04 08:06:51;;;;;;;12.05;7.88;;;7.70;1.00;;;;;;5057490;28;20226;-80
2022/01/04 08:09:17;;;;;;;9.25;7.05;;;7.80;1.00;;;;;;5055500;28;20239;-81
2022/01/04 08:11:44;;;;;;;13.35;7.35;;;7.80;1.00;;;;;;5055824;28;20338;-80
2022/01/04 08:14:11;;;;;;;11.23;7.20;;;7.80;1.00;;;;;;5062072;28;20234;-80
2022/01/04 08:16:38;;;;;;;10.32;6.88;;;7.80;1.00;;;;;;5058314;28;20919;-80
2022/01/04 08:19:06;;;;;;;12.70;8.20;;;7.90;1.00;;;;;;5050859;28;20320;-81
2022/01/04 08:21:33;;;;;;;8.90;6.40;;;7.90;1.00;;;;;;5058050;28;20262;-79
2022/01/04 08:24:00;;;;;;;7.95;5.60;;;7.80;1.00;;;;;;5057862;28;20224;-79
2022/01/04 08:26:28;;;;;;;20.50;12.27;;;7.80;1.00;;;;;;5052333;28;20357;-80
2022/01/04 08:28:55;;;;;;;6.47;5.30;;;7.90;1.00;;;;;;5050783;28;20549;-80
2022/01/04 08:31:23;;;;;;;5.00;3.88;;;7.90;1.00;;;;;;5061234;28;20476;-80
2022/01/04 08:33:49;;;;;;;5.88;4.25;;;7.80;1.00;;;;;;5057555;28;20274;-81
2022/01/04 08:36:18;;;;;;;4.80;4.00;;;7.80;1.00;;;;;;5058352;28;20272;-80
2022/01/04 08:38:44;;;;;;;5.60;4.03;;;7.90;1.00;;;;;;5060123;28;20348;-80
2022/01/04 08:41:11;;;;;;;5.90;4.40;;;7.90;1.00;;;;;;5060972;28;20275;-79
2022/01/04 08:43:38;;;;;;;4.20;3.70;;;8.00;1.00;;;;;;5061010;28;20414;-80
2022/01/04 08:46:05;;;;;;;12.10;4.67;;;8.00;1.00;;;;;;5074030;28;20431;-78
2022/01/04 08:48:32;;;;;;;5.50;3.80;;;8.10;1.00;;;;;;5059301;28;20458;-80
2022/01/04 08:50:59;;;;;;;4.57;3.35;;;8.10;1.00;;;;;;5053973;28;21355;-79
2022/01/04 08:53:27;;;;;;;4.35;3.70;;;8.10;1.00;;;;;;5068576;28;20240;-79
2022/01/04 08:55:56;;;;;;;7.28;6.53;;;8.10;1.00;;;;;;5065894;28;20230;-78
2022/01/04 08:58:23;;;;;;;14.13;8.68;;;8.10;1.00;;;;;;5067100;28;20246;-77
2022/01/04 09:00:50;;;;;;;9.43;4.57;;;8.20;1.00;;;;;;5063582;28;20252;-79
2022/01/04 09:03:17;;;;;;;6.03;4.55;;;8.20;1.00;;;;;;5072819;28;20403;-78
2022/01/04 09:05:44;;;;;;;6.60;4.70;;;8.30;1.00;;;;;;5061677;28;20297;-82
2022/01/04 09:08:11;;;;;;;5.53;4.10;;;8.40;1.00;;;;;;5068552;28;20598;-81
2022/01/04 09:10:51;;;;;;;4.72;3.67;;;8.40;1.00;;;;;;5062886;28;21247;-80
2022/01/04 09:13:34;;;;;;;5.10;3.40;;;8.50;1.00;;;;;;5072602;28;20220;-82
2022/01/04 09:19:00;;;;;;;3.80;2.93;;;8.50;1.00;;;;;;4979482;28;22349;-79
2022/01/04 09:21:29;;;;;;;4.10;2.80;;;8.50;1.00;;;;;;4998540;28;20429;-77
2022/01/04 09:23:58;;;;;;;3.77;2.73;;;8.50;1.00;;;;;;5003889;28;20461;-80
2022/01/04 09:26:27;;;;;;;4.10;3.13;;;8.50;1.00;;;;;;5041018;28;21433;-79
2022/01/04 09:28:55;;;;;;;4.73;3.20;;;8.60;1.00;;;;;;5043363;28;20471;-79
2022/01/04 09:31:23;;;;;;;13.13;10.45;;;8.50;1.00;;;;;;5051067;28;20518;-78
2022/01/04 09:33:50;;;;;;;3.90;2.42;;;8.60;1.00;;;;;;5044675;28;20263;-80
2022/01/04 09:36:17;;;;;;;7.53;3.27;;;8.50;1.00;;;;;;5051493;28;21021;-77
2022/01/04 09:38:44;;;;;;;4.70;3.23;;;8.50;1.00;;;;;;5053140;28;21102;-79
2022/01/04 09:41:11;;;;;;;6.40;3.70;;;8.50;1.00;;;;;;5054573;28;20555;-77
2022/01/04 09:43:39;;;;;;;6.88;3.78;;;8.50;1.00;;;;;;5050915;28;20271;-78
2022/01/04 09:46:06;;;;;;;14.93;8.37;;;8.50;1.00;;;;;;5049697;28;20285;-80
2022/01/04 09:48:32;;;;;;;7.83;5.50;;;8.50;1.00;;;;;;5051700;28;20661;-80
2022/01/04 09:51:01;;;;;;;3.70;2.87;;;8.50;1.00;;;;;;5052922;28;20453;-78
2022/01/04 09:53:28;;;;;;;4.03;2.85;;;8.40;1.00;;;;;;5059214;28;20438;-78
2022/01/04 09:55:56;;;;;;;5.90;3.37;;;8.40;1.00;;;;;;5035363;28;20778;-79
2022/01/04 09:58:25;;;;;;;3.40;2.90;;;8.40;1.00;;;;;;5037506;28;20448;-78
2022/01/04 10:00:54;;;;;;;3.37;2.90;;;8.40;1.00;;;;;;5037462;28;20943;-78
2022/01/04 10:03:25;;;;;;;3.73;2.90;;;8.30;1.00;;;;;;5035422;28;20434;-80
2022/01/04 10:06:02;;;;;;;3.70;2.58;;;8.30;1.00;;;;;;5030965;28;20455;-77
2022/01/04 10:08:28;;;;;;;4.03;3.13;;;8.30;1.00;;;;;;5035405;28;20394;-78
2022/01/04 10:11:02;;;;;;;3.70;2.65;;;8.20;1.00;;;;;;5039472;28;20730;-80
2022/01/04 10:13:31;;;;;;;6.15;2.80;;;8.10;1.00;;;;;;5034200;28;21201;-80
2022/01/04 10:15:59;;;;;;;5.95;3.83;;;8.10;1.00;;;;;;5029961;28;20313;-79
2022/01/04 10:18:28;;;;;;;5.65;3.00;;;8.10;1.00;;;;;;5028219;28;21502;-79
2022/01/04 10:21:13;;;;;;;5.57;2.95;;;8.20;1.00;;;;;;5041443;28;20280;-78
2022/01/04 10:23:46;;;;;;;3.70;2.72;;;8.10;1.00;;;;;;5052218;28;20355;-77
2022/01/04 10:26:13;;;;;;;4.93;2.90;;;8.10;1.00;;;;;;5046285;28;20325;-77
2022/01/04 10:28:42;;;;;;;5.30;2.87;;;8.00;1.00;;;;;;5055412;28;20504;-77
2022/01/04 10:31:14;;;;;;;3.97;3.03;;;7.90;1.00;;;;;;5042684;28;20678;-79
2022/01/04 10:33:41;;;;;;;5.43;3.50;;;7.90;1.00;;;;;;5046955;28;20218;-79
2022/01/04 10:36:11;;;;;;;4.05;2.92;;;7.80;1.00;;;;;;5052563;28;20341;-79
2022/01/04 10:38:40;;;;;;;4.35;3.00;;;7.90;1.00;;;;;;5047853;28;20230;-76
2022/01/04 10:41:08;;;;;;;4.03;3.47;;;7.80;1.00;;;;;;5066779;28;20338;-77
2022/01/04 10:43:39;;;;;;;3.20;2.55;;;7.80;1.00;;;;;;5069767;28;20445;-77
2022/01/04 10:46:07;;;;;;;3.97;2.80;;;7.80;1.00;;;;;;5069730;28;20260;-78
2022/01/04 10:48:39;;;;;;;3.55;2.97;;;7.90;1.00;;;;;;5072851;28;20222;-77
2022/01/04 10:51:31;;;;;;;6.67;2.70;;;7.80;1.00;;;;;;5068095;28;20225;-77
2022/01/04 10:54:01;;;;;;;6.65;3.08;;;7.90;1.00;;;;;;5047852;28;20524;-78
2022/01/04 10:56:31;;;;;;;3.70;3.10;;;7.90;1.00;;;;;;5034513;28;20333;-77
2022/01/04 10:59:00;;;;;;;4.70;2.77;;;7.90;1.00;;;;;;5043982;28;20447;-77
2022/01/04 11:01:29;;;;;;;4.18;3.00;;;8.00;1.00;;;;;;5032332;28;20614;-78
2022/01/04 11:03:59;;;;;;;4.78;3.28;;;8.00;1.00;;;;;;5030033;28;20243;-79
2022/01/04 11:06:28;;;;;;;4.10;3.17;;;8.00;1.00;;;;;;5045232;28;20546;-78
2022/01/04 11:08:55;;;;;;;3.60;3.00;;;8.00;1.00;;;;;;5030743;28;20843;-77
2022/01/04 11:11:23;;;;;;;4.22;3.10;;;8.00;1.00;;;;;;5022656;28;20538;-77
2022/01/04 11:13:52;;;;;;;3.40;2.67;;;7.90;1.00;;;;;;5026604;28;20223;-78
2022/01/04 11:16:22;;;;;;;5.30;2.90;;;7.90;1.00;;;;;;5037990;28;20913;-80
2022/01/04 11:18:51;;;;;;;4.88;3.05;;;7.90;1.00;;;;;;5032329;28;20496;-77
2022/01/04 11:21:25;;;;;;;4.28;3.35;;;7.90;1.00;;;;;;5035733;28;20265;-78
2022/01/04 11:23:53;;;;;;;5.65;3.80;;;7.90;1.00;;;;;;5029257;28;20251;-77
2022/01/04 11:26:20;;;;;;;4.28;3.80;;;7.80;1.00;;;;;;5031858;28;20693;-79
2022/01/04 11:28:50;;;;;;;3.67;3.00;;;7.80;1.00;;;;;;5038390;28;20368;-77
2022/01/04 11:31:45;;;;;;;5.15;3.45;;;7.80;1.00;;;;;;5045224;28;20885;-77
2022/01/04 11:34:18;;;;;;;4.05;2.60;;;7.90;1.00;;;;;;5004930;28;1206088;-78
2022/01/04 11:36:50;;;;;;;7.75;3.70;;;7.80;1.00;;;;;;5038412;28;20243;-78
2022/01/04 11:39:29;;;;;;;4.32;2.90;;;7.70;1.00;;;;;;5034333;28;20227;-78
2022/01/04 11:41:57;;;;;;;3.70;2.60;;;7.70;1.00;;;;;;5027785;28;20221;-77
2022/01/04 11:44:27;;;;;;;3.97;3.55;;;7.80;1.00;;;;;;5029096;28;20534;-79
2022/01/04 11:47:08;;;;;;;3.80;2.45;;;7.80;1.00;;;;;;5035269;28;20230;-79
2022/01/04 11:50:13;;;;;;;7.22;3.40;;;7.70;1.00;;;;;;5035028;28;20616;-78
2022/01/04 11:52:43;;;;;;;4.05;2.95;;;7.70;1.00;;;;;;5060143;28;20242;-80
2022/01/04 11:55:23;;;;;;;4.85;3.05;;;7.80;1.00;;;;;;5065125;28;20214;-77
2022/01/04 11:57:54;;;;;;;4.00;2.72;;;7.80;1.00;;;;;;5054717;28;20439;-77
2022/01/04 12:00:25;;;;;;;4.43;3.60;;;7.80;1.00;;;;;;5050174;28;20233;-78
2022/01/04 12:03:04;;;;;;;3.83;3.13;;;7.80;1.00;;;;;;5075306;28;20201;-78
2022/01/04 12:05:31;;;;;;;4.57;2.78;;;7.90;1.00;;;;;;5060678;28;20778;-80
2022/01/04 12:08:00;;;;;;;5.37;3.20;;;7.90;1.00;;;;;;5047156;28;20232;-80
2022/01/04 12:10:38;;;;;;;5.07;3.88;;;7.90;1.00;;;;;;5038177;28;20571;-81
2022/01/04 12:13:09;;;;;;;4.47;2.72;;;7.90;1.00;;;;;;5033606;28;20231;-79
2022/01/04 12:15:47;;;;;;;3.70;2.72;;;7.80;1.00;;;;;;5044976;28;20222;-78
2022/01/04 12:19:01;;;;;;;3.37;2.90;;;7.70;1.00;;;;;;5016992;28;20219;-80
2022/01/04 12:21:37;;;;;;;4.20;3.30;;;7.70;1.00;;;;;;5047082;28;20490;-81
2022/01/04 12:24:08;;;;;;;6.40;3.92;;;7.70;1.00;;;;;;5044545;28;20446;-79
2022/01/04 12:26:36;;;;;;;4.80;3.85;;;7.80;1.00;;;;;;5036834;28;20232;-77
2022/01/04 12:29:25;;;;;;;7.88;4.97;;;7.80;1.00;;;;;;5037238;28;20260;-77
2022/01/04 12:32:02;;;;;;;7.40;4.70;;;7.80;1.00;;;;;;5044151;28;20350;-80
2022/01/04 12:34:34;;;;;;;5.50;3.55;;;7.80;1.00;;;;;;5036701;28;20222;-79
2022/01/04 12:37:03;;;;;;;6.18;4.28;;;7.80;1.00;;;;;;5039548;28;20230;-80
2022/01/04 12:39:37;;;;;;;6.07;3.97;;;7.90;1.00;;;;;;5042917;28;20310;-79
2022/01/04 12:42:05;;;;;;;3.95;3.15;;;7.80;1.00;;;;;;5059727;28;20237;-77
2022/01/04 12:44:32;;;;;;;10.43;5.57;;;7.90;1.00;;;;;;5060385;28;20285;-78
2022/01/04 12:46:59;;;;;;;5.35;4.40;;;7.90;1.00;;;;;;5052436;28;20273;-77
2022/01/04 12:49:29;;;;;;;6.23;5.00;;;8.00;1.00;;;;;;5066814;28;20236;-79
2022/01/04 12:51:57;;;;;;;5.72;4.95;;;8.00;1.00;;;;;;5070158;28;20426;-78
2022/01/04 12:54:25;;;;;;;6.43;5.72;;;8.00;1.00;;;;;;5063879;28;21193;-77
2022/01/04 12:56:55;;;;;;;7.32;6.63;;;8.00;1.00;;;;;;5064376;28;20233;-77
2022/01/04 12:59:39;;;;;;;8.90;5.33;;;8.10;1.00;;;;;;5043016;28;20293;-77
2022/01/04 13:02:12;;;;;;;5.70;4.95;;;8.10;1.00;;;;;;5057890;28;20495;-77
2022/01/04 13:04:43;;;;;;;6.15;5.20;;;8.10;1.00;;;;;;5074121;28;20226;-77
2022/01/04 13:07:17;;;;;;;5.78;5.10;;;8.10;1.00;;;;;;5054140;28;21080;-77
2022/01/04 13:09:49;;;;;;;6.47;4.67;;;8.10;1.00;;;;;;5045014;28;20292;-77
2022/01/04 13:12:22;;;;;;;9.27;5.27;;;8.10;1.00;;;;;;5059110;28;20461;-77
2022/01/04 13:14:49;;;;;;;6.88;5.03;;;8.20;1.00;;;;;;5058602;28;20447;-76
2022/01/04 13:17:16;;;;;;;8.65;5.90;;;8.20;1.00;;;;;;5049363;28;21304;-75
2022/01/04 13:19:44;;;;;;;9.18;6.20;;;8.20;1.00;;;;;;5033691;28;20309;-77
2022/01/04 13:22:14;;;;;;;8.35;6.63;;;8.10;1.00;;;;;;5043166;28;20233;-77
2022/01/04 13:24:46;;;;;;;6.32;5.20;;;8.20;1.00;;;;;;5050754;28;20238;-77